createdAt,value
2023-03-20T00:01:14.755Z,97582.19
2023-03-20T00:03:41.413Z,97579.84
2023-03-20T00:06:19.433Z,97590.66
2023-03-20T00:08:47.324Z,97581.63
2023-03-20T00:11:29.226Z,97582.88
2023-03-20T00:14:07.887Z,97587.34
2023-03-20T00:16:40.607Z,97580.66
2023-03-20T00:19:14.461Z,97583.84
2023-03-20T00:21:41.028Z,97587.06
2023-03-20T00:24:08.342Z,97580.34
2023-03-20T00:26:35.524Z,97589.56
2023-03-20T00:29:04.259Z,97579.28
2023-03-20T00:31:36.648Z,97583.66
2023-03-20T00:34:06.715Z,97587.22
2023-03-20T00:36:33.693Z,97573.34
2023-03-20T00:39:00.348Z,97581.28
2023-03-20T00:41:42.330Z,97585.22
2023-03-20T00:44:30.029Z,97577.31
2023-03-20T00:47:13.490Z,97564.69
2023-03-20T00:49:40.280Z,97573.44
2023-03-20T00:52:06.887Z,97565.91
2023-03-20T00:54:33.453Z,97561.16
2023-03-20T00:57:04.094Z,97559.97
2023-03-20T00:59:33.842Z,97563.94
2023-03-20T01:02:01.342Z,97565.50
2023-03-20T01:04:35.555Z,97559.88
2023-03-20T01:07:02.623Z,97563.81
2023-03-20T01:09:29.292Z,97556.28
2023-03-20T01:11:56.230Z,97550.72
2023-03-20T01:14:22.989Z,97549.19
2023-03-20T01:16:49.637Z,97544.47
2023-03-20T01:19:16.947Z,97548.84
2023-03-20T01:21:44.203Z,97548.13
2023-03-20T01:24:11.041Z,97545.38
2023-03-20T01:26:42.178Z,97547.38
2023-03-20T01:29:23.463Z,97548.94
2023-03-20T01:31:51.104Z,97547.38
2023-03-20T01:34:19.265Z,97551.38
2023-03-20T01:36:53.053Z,97545.44
2023-03-20T01:39:28.761Z,97546.63
2023-03-20T01:41:55.377Z,97545.84
2023-03-20T01:44:29.229Z,97533.53
2023-03-20T01:46:56.548Z,97556.94
2023-03-20T01:49:22.952Z,97552.16
2023-03-20T01:51:50.866Z,97554.13
2023-03-20T01:54:25.826Z,97556.88
2023-03-20T01:56:52.459Z,97563.22
2023-03-20T01:59:38.425Z,97558.47
2023-03-20T02:02:07.510Z,97551.38
2023-03-20T02:04:38.552Z,97551.41
2023-03-20T02:07:08.430Z,97558.56
2023-03-20T02:09:34.938Z,97558.56
2023-03-20T02:12:02.626Z,97562.56
2023-03-20T02:14:30.075Z,97564.94
2023-03-20T02:16:56.727Z,97560.19
2023-03-20T02:19:38.103Z,97565.75
2023-03-20T02:22:21.325Z,97568.16
2023-03-20T02:24:55.644Z,97571.31
2023-03-20T02:27:37.306Z,97585.56
2023-03-20T02:30:34.844Z,97577.25
2023-03-20T02:33:36.604Z,97571.69
2023-03-20T02:36:13.760Z,97566.53
2023-03-20T02:39:06.505Z,97571.28
2023-03-20T02:41:38.002Z,97558.19
2023-03-20T02:44:18.643Z,97561.72
2023-03-20T02:46:57.673Z,97572.03
2023-03-20T02:49:46.087Z,97575.22
2023-03-20T02:52:28.772Z,97574.81
2023-03-20T02:55:14.583Z,97570.47
2023-03-20T02:58:09.596Z,97559.38
2023-03-20T03:00:47.552Z,97566.91
2023-03-20T03:03:32.295Z,97579.59
2023-03-20T03:06:19.027Z,97579.25
2023-03-20T03:09:00.123Z,97578.84
2023-03-20T03:11:26.791Z,97577.63
2023-03-20T03:13:57.006Z,97578.84
2023-03-20T03:16:30.682Z,97567.38
2023-03-20T03:19:13.960Z,97568.94
2023-03-20T03:21:41.590Z,97566.97
2023-03-20T03:24:40.260Z,97561.00
2023-03-20T03:27:17.602Z,97566.56
2023-03-20T03:29:48.767Z,97564.19
2023-03-20T03:32:50.731Z,97571.72
2023-03-20T03:35:20.673Z,97566.56
2023-03-20T03:38:00.927Z,97549.16
2023-03-20T03:40:35.454Z,97562.63
2023-03-20T03:43:07.635Z,97565.78
2023-03-20T03:45:44.897Z,97565.00
2023-03-20T03:48:20.703Z,97557.06
2023-03-20T03:50:55.867Z,97551.94
2023-03-20T03:53:35.305Z,97574.09
2023-03-20T03:56:06.972Z,97546.78
2023-03-20T03:58:39.780Z,97568.97
2023-03-20T04:01:11.712Z,97570.16
2023-03-20T04:03:41.734Z,97566.59
2023-03-20T04:06:12.908Z,97569.34
2023-03-20T04:08:43.393Z,97574.50
2023-03-20T04:11:21.502Z,97567.78
2023-03-20T04:13:49.970Z,97568.16
2023-03-20T04:16:18.077Z,97565.00
2023-03-20T04:18:45.604Z,97569.75
2023-03-20T04:21:12.781Z,97570.94
2023-03-20T04:23:39.667Z,97585.56
2023-03-20T04:26:06.930Z,97582.41
2023-03-20T04:28:33.688Z,97573.31
2023-03-20T04:31:02.408Z,97577.25
2023-03-20T04:33:29.075Z,97583.59
2023-03-20T04:35:56.378Z,97562.22
2023-03-20T04:38:23.308Z,97589.53
2023-03-20T04:40:49.830Z,97581.63
2023-03-20T04:43:16.905Z,97579.25
2023-03-20T04:45:43.675Z,97580.03
2023-03-20T04:48:10.407Z,97584.00
2023-03-20T04:50:37.119Z,97577.69
2023-03-20T04:53:03.760Z,97581.66
2023-03-20T04:55:30.371Z,97585.97
2023-03-20T04:57:56.909Z,97590.34
2023-03-20T05:00:23.566Z,97592.31
2023-03-20T05:02:50.320Z,97599.84
2023-03-20T05:05:16.911Z,97594.28
2023-03-20T05:07:43.712Z,97607.34
2023-03-20T05:10:11.418Z,97602.19
2023-03-20T05:12:37.976Z,97598.66
2023-03-20T05:15:04.823Z,97604.94
2023-03-20T05:17:31.361Z,97598.22
2023-03-20T05:19:58.028Z,97596.66
2023-03-20T05:22:24.647Z,97598.25
2023-03-20T05:24:51.333Z,97582.81
2023-03-20T05:27:18.424Z,97604.59
2023-03-20T05:29:45.339Z,97605.38
2023-03-20T05:32:12.819Z,97604.56
2023-03-20T05:34:39.409Z,97602.19
2023-03-20T05:37:06.036Z,97596.63
2023-03-20T05:39:32.598Z,97607.72
2023-03-20T05:41:59.167Z,97600.13
2023-03-20T05:44:25.709Z,97604.50
2023-03-20T05:46:52.260Z,97604.16
2023-03-20T05:49:18.798Z,97602.16
2023-03-20T05:51:45.436Z,97601.31
2023-03-20T05:54:11.978Z,97602.44
2023-03-20T05:56:38.543Z,97599.69
2023-03-20T05:59:05.594Z,97604.66
2023-03-20T06:01:32.214Z,97589.84
2023-03-20T06:03:58.818Z,97594.41
2023-03-20T06:06:25.692Z,97591.34
2023-03-20T06:08:52.267Z,97596.59
2023-03-20T06:11:18.841Z,97582.72
2023-03-20T06:13:45.454Z,97579.72
2023-03-20T06:16:12.160Z,97589.72
2023-03-20T06:18:39.303Z,97587.25
2023-03-20T06:21:06.196Z,97578.34
2023-03-20T06:23:32.795Z,97588.91
2023-03-20T06:25:59.405Z,97582.16
2023-03-20T06:28:26.262Z,97587.94
2023-03-20T06:30:54.485Z,97582.47
2023-03-20T06:33:21.978Z,97576.91
2023-03-20T06:35:49.298Z,97563.88
2023-03-20T06:38:16.079Z,97560.06
2023-03-20T06:40:43.195Z,97551.91
2023-03-20T06:43:12.404Z,97560.53
2023-03-20T06:45:40.241Z,97551.47
2023-03-20T06:48:08.885Z,97552.56
2023-03-20T06:50:35.794Z,97553.28
2023-03-20T06:53:02.484Z,97552.91
2023-03-20T06:55:29.324Z,97555.19
2023-03-20T06:57:56.048Z,97560.69
2023-03-20T07:00:22.767Z,97557.22
2023-03-20T07:02:49.552Z,97554.31
2023-03-20T07:05:16.445Z,97541.00
2023-03-20T07:07:43.173Z,97542.44
2023-03-20T07:10:10.271Z,97541.72
2023-03-20T07:12:37.724Z,97542.91
2023-03-20T07:15:04.450Z,97548.81
2023-03-20T07:17:31.057Z,97551.69
2023-03-20T07:19:57.660Z,97555.84
2023-03-20T07:22:26.625Z,97542.88
2023-03-20T07:24:53.477Z,97542.88
2023-03-20T07:27:20.412Z,97515.19
2023-03-20T07:29:46.985Z,97519.19
2023-03-20T07:32:13.558Z,97524.91
2023-03-20T07:34:40.524Z,97515.06
2023-03-20T07:37:07.307Z,97517.00
2023-03-20T07:39:33.922Z,97508.78
2023-03-20T07:42:00.507Z,97506.88
2023-03-20T07:44:27.051Z,97512.78
2023-03-20T07:46:53.777Z,97545.81
2023-03-20T07:49:20.564Z,97541.19
2023-03-20T07:51:48.921Z,97547.47
2023-03-20T07:54:15.748Z,97539.47
2023-03-20T07:56:42.605Z,97534.63
2023-03-20T07:59:09.667Z,97532.72
2023-03-20T08:01:36.406Z,97527.75
2023-03-20T08:04:03.076Z,97531.13
2023-03-20T08:06:30.103Z,97528.41
2023-03-20T08:08:57.053Z,97546.34
2023-03-20T08:11:23.796Z,97538.38
2023-03-20T08:13:50.639Z,97544.63
2023-03-20T08:16:17.633Z,97545.16
2023-03-20T08:18:44.318Z,97528.72
2023-03-20T08:21:10.970Z,97538.78
2023-03-20T08:23:37.526Z,97542.00
2023-03-20T08:26:04.333Z,97544.47
2023-03-20T08:28:46.624Z,97542.88
2023-03-20T08:31:14.419Z,97542.25
2023-03-20T08:33:41.083Z,97538.91
2023-03-20T08:36:08.185Z,97541.31
2023-03-20T08:38:34.993Z,97534.41
2023-03-20T08:41:01.613Z,97541.97
2023-03-20T08:43:28.153Z,97527.88
2023-03-20T08:45:55.375Z,97504.44
2023-03-20T08:48:21.943Z,97515.25
2023-03-20T08:50:48.533Z,97513.56
2023-03-20T08:53:15.107Z,97505.25
2023-03-20T08:55:41.713Z,97504.50
2023-03-20T08:58:08.343Z,97504.72
2023-03-20T09:00:34.900Z,97503.53
2023-03-20T09:03:01.551Z,97499.06
2023-03-20T09:05:28.254Z,97501.69
2023-03-20T09:07:54.811Z,97495.34
2023-03-20T09:10:22.300Z,97490.09
2023-03-20T09:12:48.861Z,97491.09
2023-03-20T09:15:15.494Z,97489.81
2023-03-20T09:17:42.225Z,97482.75
2023-03-20T09:20:09.493Z,97484.09
2023-03-20T09:22:36.329Z,97474.41
2023-03-20T09:25:03.820Z,97473.47
2023-03-20T09:27:30.535Z,97476.66
2023-03-20T09:29:57.066Z,97473.00
2023-03-20T09:32:23.711Z,97461.88
2023-03-20T09:34:50.369Z,97465.03
2023-03-20T09:37:16.934Z,97458.19
2023-03-20T09:39:43.516Z,97457.63
2023-03-20T09:42:24.808Z,97450.47
2023-03-20T09:45:09.102Z,97437.94
2023-03-20T09:47:47.103Z,97432.88
2023-03-20T09:50:25.574Z,97432.31
2023-03-20T09:52:57.869Z,97423.28
2023-03-20T09:55:34.246Z,97416.13
2023-03-20T09:58:29.170Z,97411.59
2023-03-20T10:00:59.888Z,97407.06
2023-03-20T10:03:29.418Z,97399.03
2023-03-20T10:06:07.652Z,97389.47
2023-03-20T10:08:36.880Z,97379.06
2023-03-20T10:11:18.705Z,97386.69
2023-03-20T10:14:03.738Z,97380.19
2023-03-20T10:16:56.682Z,97377.88
2023-03-20T10:19:24.731Z,97372.91
2023-03-20T10:22:18.987Z,97372.66
2023-03-20T10:24:55.787Z,97359.22
2023-03-20T10:27:28.174Z,97354.06
2023-03-20T10:30:02.270Z,97352.72
2023-03-20T10:32:33.285Z,97345.97
2023-03-20T10:35:21.437Z,97339.25
2023-03-20T10:38:18.400Z,97334.63
2023-03-20T10:40:45.987Z,97328.13
2023-03-20T10:43:18.437Z,97325.88
2023-03-20T10:45:50.368Z,97318.25
2023-03-20T10:48:27.136Z,97317.44
2023-03-20T10:50:57.002Z,97307.06
2023-03-20T10:53:37.433Z,97317.50
2023-03-20T10:56:12.887Z,97298.63
2023-03-20T10:58:44.711Z,97300.91
2023-03-20T11:01:11.395Z,97290.06
2023-03-20T11:03:39.996Z,97290.59
2023-03-20T11:06:18.499Z,97285.19
2023-03-20T11:08:51.262Z,97277.41
2023-03-20T11:11:34.158Z,97264.47
2023-03-20T11:14:30.818Z,97267.56
2023-03-20T11:17:02.103Z,97260.31
2023-03-20T11:19:33.918Z,97259.47
2023-03-20T11:22:08.748Z,97251.63
2023-03-20T11:24:45.962Z,97242.25
2023-03-20T11:27:15.084Z,97234.22
2023-03-20T11:29:45.801Z,97210.19
2023-03-20T11:32:27.641Z,97219.44
2023-03-20T11:34:57.522Z,97214.50
2023-03-20T11:37:33.309Z,97204.66
2023-03-20T11:40:10.486Z,97198.66
2023-03-20T11:42:37.340Z,97195.28
2023-03-20T11:45:05.741Z,97199.22
2023-03-20T11:47:35.706Z,97182.88
2023-03-20T11:50:06.033Z,97180.84
2023-03-20T11:52:39.048Z,97180.50
2023-03-20T11:55:24.571Z,97179.75
2023-03-20T11:57:51.280Z,97163.16
2023-03-20T12:00:22.772Z,97167.16
2023-03-20T12:02:49.981Z,97167.97
2023-03-20T12:05:36.662Z,97160.22
2023-03-20T12:08:06.454Z,97156.38
2023-03-20T12:10:39.510Z,97145.19
2023-03-20T12:13:25.016Z,97129.59
2023-03-20T12:15:57.825Z,97145.31
2023-03-20T12:18:41.261Z,97143.25
2023-03-20T12:21:24.377Z,97140.88
2023-03-20T12:24:14.280Z,97125.00
2023-03-20T12:26:56.207Z,97122.81
2023-03-20T12:29:48.399Z,97119.16
2023-03-20T12:32:24.414Z,97103.78
2023-03-20T12:34:57.705Z,97110.81
2023-03-20T12:37:24.344Z,97103.31
2023-03-20T12:39:50.900Z,97098.38
2023-03-20T12:42:20.267Z,97097.59
2023-03-20T12:44:46.785Z,97102.69
2023-03-20T12:47:22.179Z,97099.81
2023-03-20T12:50:26.125Z,97090.78
2023-03-20T12:53:23.186Z,97076.31
2023-03-20T12:56:11.238Z,97064.72
2023-03-20T12:58:52.899Z,97067.03
2023-03-20T13:01:26.796Z,97058.19
2023-03-20T13:04:41.944Z,97061.66
2023-03-20T13:07:19.495Z,97054.28
2023-03-20T13:09:59.335Z,97053.19
2023-03-20T13:13:06.718Z,97048.56
2023-03-20T13:15:42.330Z,97040.22
2023-03-20T13:18:23.991Z,97045.25
2023-03-20T13:20:55.357Z,97034.44
2023-03-20T13:23:29.786Z,97030.78
2023-03-20T13:25:56.598Z,97025.88
2023-03-20T13:28:47.429Z,97028.34
2023-03-20T13:31:17.083Z,97015.94
2023-03-20T13:33:59.414Z,97005.13
2023-03-20T13:36:56.802Z,97009.03
2023-03-20T13:39:41.204Z,97015.91
2023-03-20T13:42:15.054Z,96992.34
2023-03-20T13:44:44.239Z,97001.47
2023-03-20T13:47:17.400Z,96998.94
2023-03-20T13:49:50.871Z,96990.81
2023-03-20T13:52:22.048Z,96991.75
2023-03-20T13:55:19.818Z,96993.50
2023-03-20T13:58:09.487Z,96990.44
2023-03-20T14:00:42.236Z,96987.88
2023-03-20T14:03:25.281Z,96977.53
2023-03-20T14:05:52.059Z,96971.03
2023-03-20T14:08:27.629Z,96973.66
2023-03-20T14:11:13.671Z,96959.44
2023-03-20T14:13:44.761Z,96953.72
2023-03-20T14:16:16.038Z,96958.22
2023-03-20T14:18:45.485Z,96956.34
2023-03-20T14:21:15.437Z,96957.81
2023-03-20T14:23:46.969Z,96955.59
2023-03-20T14:26:23.740Z,96963.78
2023-03-20T14:28:58.205Z,96965.47
2023-03-20T14:31:34.401Z,96967.78
2023-03-20T14:34:24.731Z,96965.38
2023-03-20T14:36:51.346Z,96956.03
2023-03-20T14:39:36.245Z,96955.50
2023-03-20T14:42:16.060Z,96964.38
2023-03-20T14:44:50.669Z,96958.97
2023-03-20T14:47:35.890Z,96963.78
2023-03-20T14:50:05.111Z,96965.94
2023-03-20T14:52:49.631Z,96964.69
2023-03-20T14:55:28.947Z,96967.13
2023-03-20T14:57:57.346Z,96961.19
2023-03-20T15:00:30.910Z,96951.69
2023-03-20T15:03:11.613Z,96938.84
2023-03-20T15:05:39.862Z,96934.63
2023-03-20T15:08:15.899Z,96933.59
2023-03-20T15:10:55.509Z,96940.16
2023-03-20T15:13:24.823Z,96941.31
2023-03-20T15:15:56.936Z,96937.34
2023-03-20T15:18:26.673Z,96934.00
2023-03-20T15:20:56.522Z,96938.25
2023-03-20T15:23:23.515Z,96938.50
2023-03-20T15:25:50.896Z,96945.56
2023-03-20T15:28:22.963Z,96945.44
2023-03-20T15:30:53.493Z,96945.28
2023-03-20T15:33:29.334Z,96944.69
2023-03-20T15:35:56.405Z,96944.97
2023-03-20T15:38:26.369Z,96955.78
2023-03-20T15:40:53.540Z,96954.78
2023-03-20T15:43:24.404Z,96968.78
2023-03-20T15:46:02.940Z,96969.16
2023-03-20T15:48:36.855Z,96966.91
2023-03-20T15:51:05.563Z,96962.56
2023-03-20T15:53:35.838Z,96951.78
2023-03-20T15:56:18.626Z,96956.22
2023-03-20T15:58:47.043Z,96957.50
2023-03-20T16:01:19.418Z,96962.97
2023-03-20T16:03:46.543Z,96957.53
2023-03-20T16:06:16.600Z,96946.53
2023-03-20T16:08:45.678Z,96953.59
2023-03-20T16:11:15.556Z,96962.16
2023-03-20T16:13:47.807Z,96961.91
2023-03-20T16:16:17.833Z,96963.75
2023-03-20T16:18:48.069Z,96969.47
2023-03-20T16:21:26.262Z,96974.44
2023-03-20T16:23:56.075Z,96973.41
2023-03-20T16:26:24.757Z,96976.53
2023-03-20T16:28:57.486Z,96984.53
2023-03-20T16:31:29.845Z,96976.81
2023-03-20T16:34:24.645Z,96985.59
2023-03-20T16:36:59.331Z,96984.06
2023-03-20T16:39:30.918Z,96993.34
2023-03-20T16:42:27.939Z,96986.63
2023-03-20T16:44:56.572Z,96989.72
2023-03-20T16:47:45.965Z,96981.19
2023-03-20T16:50:20.850Z,96985.25
2023-03-20T16:52:56.013Z,96991.47
2023-03-20T16:55:32.038Z,96987.06
2023-03-20T16:58:03.551Z,96992.66
2023-03-20T17:00:41.621Z,96994.19
2023-03-20T17:03:14.171Z,97003.66
2023-03-20T17:05:54.813Z,97005.72
2023-03-20T17:08:51.673Z,97006.38
2023-03-20T17:11:37.011Z,97011.53
2023-03-20T17:14:04.419Z,97018.41
2023-03-20T17:16:31.818Z,97016.59
2023-03-20T17:19:07.496Z,97010.97
2023-03-20T17:21:34.471Z,97015.59
2023-03-20T17:24:01.270Z,97010.44
2023-03-20T17:26:28.239Z,97020.81
2023-03-20T17:28:55.265Z,97024.94
2023-03-20T17:31:22.054Z,97034.25
2023-03-20T17:33:48.692Z,97025.47
2023-03-20T17:36:25.595Z,97033.13
2023-03-20T17:38:53.007Z,97032.06
2023-03-20T17:41:20.791Z,97029.41
2023-03-20T17:43:48.140Z,97031.91
2023-03-20T17:46:40.282Z,97037.97
2023-03-20T17:49:19.646Z,97040.41
2023-03-20T17:51:46.302Z,97041.78
2023-03-20T17:54:12.859Z,97040.00
2023-03-20T17:56:42.085Z,97028.13
2023-03-20T17:59:14.330Z,97041.28
2023-03-20T18:01:41.705Z,97044.81
2023-03-20T18:04:08.166Z,97045.13
2023-03-20T18:06:35.024Z,97043.44
2023-03-20T18:09:02.485Z,97055.19
2023-03-20T18:11:29.307Z,97050.38
2023-03-20T18:13:56.136Z,97033.75
2023-03-20T18:16:25.696Z,97043.72
2023-03-20T18:18:53.355Z,97045.06
2023-03-20T18:21:20.298Z,97054.31
2023-03-20T18:23:47.134Z,97035.84
2023-03-20T18:26:26.341Z,97039.59
2023-03-20T18:28:54.860Z,97054.31
2023-03-20T18:31:22.198Z,97052.88
2023-03-20T18:33:49.565Z,97048.56
2023-03-20T18:36:21.083Z,97044.50
2023-03-20T18:38:48.022Z,97046.75
2023-03-20T18:41:14.902Z,97058.69
2023-03-20T18:43:42.643Z,97053.84
2023-03-20T18:46:21.054Z,97057.34
2023-03-20T18:48:48.369Z,97049.00
2023-03-20T18:51:14.955Z,97055.41
2023-03-20T18:53:41.889Z,97052.69
2023-03-20T18:56:19.808Z,97054.44
2023-03-20T18:58:47.987Z,97061.38
2023-03-20T19:01:16.048Z,97064.66
2023-03-20T19:03:44.331Z,97060.06
2023-03-20T19:06:20.854Z,97043.22
2023-03-20T19:08:48.651Z,97063.25
2023-03-20T19:11:17.318Z,97059.34
2023-03-20T19:13:49.299Z,97058.97
2023-03-20T19:16:28.037Z,97061.69
2023-03-20T19:18:56.533Z,97072.38
2023-03-20T19:21:26.495Z,97057.78
2023-03-20T19:23:58.111Z,97072.59
2023-03-20T19:26:26.379Z,97070.06
2023-03-20T19:28:54.542Z,97064.44
2023-03-20T19:31:21.658Z,97066.00
2023-03-20T19:33:49.212Z,97070.63
2023-03-20T19:36:37.054Z,97069.25
2023-03-20T19:39:06.832Z,97076.44
2023-03-20T19:41:34.192Z,97078.13
2023-03-20T19:44:01.439Z,97078.38
2023-03-20T19:46:39.806Z,97084.72
2023-03-20T19:49:20.255Z,97082.63
2023-03-20T19:51:48.586Z,97089.00
2023-03-20T19:54:15.536Z,97085.44
2023-03-20T19:56:42.169Z,97076.81
2023-03-20T19:59:08.782Z,97079.66
2023-03-20T20:01:36.361Z,97075.44
2023-03-20T20:04:04.154Z,97067.97
2023-03-20T20:06:32.798Z,97086.09
2023-03-20T20:09:01.062Z,97070.00
2023-03-20T20:11:27.984Z,97083.78
2023-03-20T20:14:13.412Z,97087.84
2023-03-20T20:16:42.565Z,97085.34
2023-03-20T20:19:09.379Z,97077.84
2023-03-20T20:22:19.740Z,97074.25
2023-03-20T20:24:22.678Z,97078.47
2023-03-20T20:26:55.302Z,97081.59
2023-03-20T20:29:26.682Z,97090.72
2023-03-20T20:31:53.384Z,97082.38
2023-03-20T20:39:53.644Z,97092.38
2023-03-20T20:42:20.736Z,97088.59
2023-03-20T20:44:47.507Z,97094.72
2023-03-20T20:47:14.516Z,97083.34
2023-03-20T20:49:41.583Z,97102.41
2023-03-20T20:52:09.108Z,97093.97
2023-03-20T20:54:35.660Z,97090.69
2023-03-20T20:57:02.354Z,97093.19
2023-03-20T20:59:29.657Z,97098.34
2023-03-20T21:01:56.598Z,97092.41
2023-03-20T21:04:24.182Z,97099.59
2023-03-20T21:07:08.791Z,97097.41
2023-03-20T21:09:37.025Z,97104.91
2023-03-20T21:12:04.483Z,97095.38
2023-03-20T21:14:31.298Z,97103.34
2023-03-20T21:17:01.392Z,97109.59
2023-03-20T21:19:49.293Z,97086.31
2023-03-20T21:22:17.078Z,97104.91
2023-03-20T21:24:44.040Z,97099.72
2023-03-20T21:27:13.985Z,97096.00
2023-03-20T21:29:43.183Z,97102.72
2023-03-20T21:32:15.168Z,97108.03
2023-03-20T21:34:42.250Z,97106.59
2023-03-20T21:38:18.493Z,97104.25
2023-03-20T21:39:57.022Z,97099.09
2023-03-20T21:42:23.553Z,97100.69
2023-03-20T21:54:01.162Z,97090.84
2023-03-20T21:56:40.102Z,97093.97
2023-03-20T22:01:58.807Z,97092.88
2023-03-20T22:05:16.383Z,97077.72
2023-03-20T22:07:37.460Z,97078.47
2023-03-20T22:10:30.706Z,97069.59
2023-03-20T22:13:21.019Z,97072.34
2023-03-20T22:15:54.860Z,97069.44
2023-03-20T22:24:48.730Z,97056.28
2023-03-20T22:30:02.589Z,97053.88
2023-03-20T22:41:32.161Z,97038.00
2023-03-20T22:46:36.059Z,97033.38
2023-03-20T22:48:48.804Z,97031.78
2023-03-20T22:51:16.467Z,97038.34
2023-03-20T22:53:44.868Z,97041.47
2023-03-20T22:56:12.013Z,97041.50
2023-03-20T22:58:38.671Z,97046.63
2023-03-20T23:01:06.086Z,97038.38
2023-03-20T23:03:41.440Z,97036.00
2023-03-20T23:06:29.485Z,97039.94
2023-03-20T23:08:58.553Z,97039.59
2023-03-20T23:11:28.920Z,97041.13
2023-03-20T23:13:56.472Z,97039.28
2023-03-20T23:16:23.352Z,97048.94
2023-03-20T23:18:49.962Z,97041.44
2023-03-20T23:21:16.607Z,97035.16
2023-03-20T23:23:43.249Z,97043.59
2023-03-20T23:26:13.466Z,97031.75
2023-03-20T23:28:41.740Z,97030.16
2023-03-20T23:31:12.037Z,97038.69
2023-03-20T23:33:39.345Z,97018.56
2023-03-20T23:36:18.678Z,97035.25
2023-03-20T23:38:48.896Z,97031.38
2023-03-20T23:41:15.814Z,97030.75
2023-03-20T23:43:42.473Z,97020.28
2023-03-20T23:46:09.394Z,97024.78
2023-03-20T23:48:39.272Z,97005.09
2023-03-20T23:51:06.132Z,97023.78
2023-03-20T23:53:32.716Z,97020.94
2023-03-20T23:55:59.286Z,97015.78
2023-03-20T23:58:27.180Z,97019.22
